Estación meteorológica de Montseny - Mas Joan (Vallès Oriental, P.N.del Montseny)

Consulta los datos en tiempo real de la estación meteorológica de Montseny - Mas Joan





Hora UTC 11:10
Temperatura 31.8 ºC
Humedad 41.6 %
Pluja 0.0 mm
Velocidad viento 4.2 km/h
Dirección viento SSE
Radiación solar 884.0 W/m²

Datos diarios 2026-09-04



Hora UTC (invierno +1h; verano +2h)
Temperatura (ºC) Humedad (%) Velocidad viento (km/h) Precipitación (mm) Radiación solar (W/m²)
Hora UTC Aire Humedad Vel. Dir. Vel. Max Dir. Intent. máx 5 min. Rad. Sol.
00:05 23.2 61.3 2.6 WSW 3.5 W 0.0 0.0
00:10 23.1 61.3 2.9 WSW 4.2 WSW 0.0 0.0
00:15 22.9 60.2 3.0 WSW 3.9 WSW 0.0 0.0
00:20 23.1 58.9 3.0 WSW 3.9 WSW 0.0 0.0
00:25 23.1 59.1 2.7 WSW 3.4 WSW 0.0 0.0
00:30 23.0 59.6 2.5 W 3.8 WSW 0.0 0.0
00:35 23.1 58.9 2.8 WSW 4.2 WSW 0.0 0.0
00:40 23.4 57.4 2.8 WSW 3.9 SW 0.0 0.2
00:45 23.2 58.2 2.8 WSW 3.7 WSW 0.0 0.0
00:50 22.9 58.5 3.3 WSW 4.1 WSW 0.0 0.0
00:55 23.0 58.0 3.2 WSW 4.0 WSW 0.0 0.0
01:00 23.0 58.8 3.4 WSW 3.8 WSW 0.0 0.0
01:05 22.8 59.3 3.0 WSW 3.4 W 0.0 0.0
01:10 22.7 59.4 3.3 WSW 4.0 W 0.0 0.0
01:15 22.8 58.4 3.1 WSW 4.2 WSW 0.0 0.0
01:20 22.8 58.6 2.9 W 3.5 WSW 0.0 0.0
01:25 22.7 58.8 3.1 WSW 3.6 WSW 0.0 0.0
01:30 22.7 58.9 3.2 WSW 3.9 WSW 0.0 0.0
01:35 23.0 58.4 3.3 WSW 3.9 WSW 0.0 0.0
01:40 22.9 58.7 3.8 WSW 4.1 WSW 0.0 0.0
01:45 22.8 59.3 3.6 WSW 4.1 WSW 0.0 0.0
01:50 22.7 59.6 2.9 W 3.4 WSW 0.0 0.0
01:55 22.6 59.5 3.3 WSW 3.7 WSW 0.0 0.0
02:00 22.6 59.1 3.3 W 3.9 WSW 0.0 0.0
02:05 22.8 58.6 3.2 WSW 4.1 WSW 0.0 0.0
02:10 22.7 59.4 3.4 WSW 3.8 SW 0.0 0.0
02:15 22.8 58.6 3.3 WSW 4.1 WSW 0.0 0.0
02:20 22.8 56.6 2.7 W 3.9 W 0.0 0.0
02:25 22.9 55.0 2.5 WSW 3.9 WSW 0.0 0.0
02:30 22.9 53.1 3.0 WSW 4.8 WSW 0.0 0.0
02:35 23.0 50.8 2.7 WSW 3.9 SW 0.0 0.0
02:40 23.0 50.2 2.6 W 4.1 WSW 0.0 0.0
02:45 23.0 48.8 2.8 W 4.0 WSW 0.0 0.0
02:50 23.2 47.6 2.6 W 4.0 W 0.0 0.0
02:55 23.1 47.1 2.5 W 3.5 WSW 0.0 0.0
03:00 23.1 46.3 2.8 W 4.2 WSW 0.0 0.0
03:05 23.0 46.8 2.9 W 4.6 W 0.0 0.0
03:10 22.9 48.9 3.0 W 4.4 W 0.0 0.0
03:15 22.9 50.7 3.1 W 4.0 W 0.0 0.0
03:20 23.0 51.3 3.4 W 4.4 W 0.0 0.0
03:25 23.0 52.4 3.8 W 5.3 WNW 0.0 0.0
03:30 22.9 53.3 5.3 WNW 7.3 WNW 0.0 0.0
03:35 23.8 49.8 3.5 W 7.1 WNW 0.0 0.8
03:40 23.9 49.0 4.1 W 7.2 WNW 0.0 0.1
03:45 24.2 47.6 4.2 W 7.7 WNW 0.0 0.1
03:50 24.3 47.8 4.8 WNW 7.5 WNW 0.0 0.0
03:55 24.4 47.4 5.1 WNW 6.9 WNW 0.0 0.1
04:00 24.7 48.3 4.7 WNW 6.7 WNW 0.0 0.0
04:05 24.6 50.0 3.8 WNW 6.8 W 0.0 0.0
04:10 24.8 50.7 4.5 WNW 6.3 WNW 0.0 0.0
04:15 24.6 52.2 4.4 WNW 6.2 WNW 0.0 0.0
04:20 24.2 53.6 4.0 W 5.6 WNW 0.0 0.0
04:25 23.9 56.2 3.1 W 4.4 W 0.0 0.0
04:30 23.6 57.8 3.4 W 6.0 WNW 0.0 0.0
04:35 23.7 57.2 3.0 W 3.9 W 0.0 0.0
04:40 23.6 58.4 2.6 W 3.5 W 0.0 0.0
04:45 23.5 58.7 2.4 WSW 3.4 W 0.0 0.0
04:50 23.5 58.5 2.4 W 3.8 W 0.0 0.0
04:55 23.6 57.7 2.5 W 3.5 W 0.0 0.0
05:00 23.5 57.7 3.5 W 4.3 WNW 0.0 0.0
05:05 23.5 57.6 3.1 W 4.4 W 0.0 0.0
05:10 23.4 57.0 3.9 WNW 5.4 WNW 0.0 0.3
05:15 23.7 55.4 3.9 W 6.2 WNW 0.0 1.7
05:20 23.9 54.5 3.1 W 5.0 WNW 0.0 3.6
05:25 24.0 54.5 2.7 W 4.0 W 0.0 5.9
05:30 23.9 54.7 2.3 W 3.2 W 0.0 8.6
05:35 24.0 54.2 2.4 WSW 3.3 WSW 0.0 12.5
05:40 24.0 54.6 2.6 WSW 3.3 WSW 0.0 32.4
05:45 24.1 54.9 2.0 W 3.3 WSW 0.0 48.4
05:50 24.5 54.1 1.9 WSW 2.7 W 0.0 63.2
05:55 25.0 53.3 1.8 SW 3.8 WSW 0.0 78.0
06:00 25.3 53.1 1.3 WSW 2.1 W 0.0 92.1
06:05 25.6 53.0 1.2 WSW 2.7 WNW 0.0 105.7
06:10 26.0 52.5 0.8 W 1.9 W 0.0 121.2
06:15 26.7 51.0 0.9 SSW 1.8 SSE 0.0 137.2
06:20 27.0 49.3 1.9 SSE 3.5 ESE 0.0 153.7
06:25 27.1 47.9 1.5 SE 2.9 SSE 0.0 169.5
06:30 27.7 45.9 1.4 NNE 3.9 NE 0.0 187.7
06:35 28.2 44.8 1.8 NE 4.7 NNW 0.0 205.1
06:40 28.1 45.1 2.5 NE 4.0 NNW 0.0 222.8
06:45 28.2 45.1 2.2 ENE 4.4 N 0.0 241.3
06:50 28.6 44.2 2.4 ENE 5.1 NE 0.0 259.3
06:55 28.6 44.6 3.1 ESE 5.8 E 0.0 278.2
07:00 28.3 45.2 3.2 SE 5.7 SSE 0.0 296.5
07:05 28.5 45.6 2.5 ESE 4.7 ESE 0.0 314.8
07:10 28.7 45.1 2.7 ESE 5.4 ESE 0.0 333.1
07:15 28.6 45.3 3.0 E 5.4 E 0.0 351.5
07:20 28.9 44.8 2.6 ESE 4.9 ESE 0.0 368.6
07:25 28.7 45.2 2.7 SE 5.5 SE 0.0 384.8
07:30 28.2 46.2 4.3 SSE 6.9 SSE 0.0 402.1
07:35 27.9 46.4 3.0 SSE 5.3 ESE 0.0 420.1
07:40 28.1 45.6 2.9 SE 6.3 E 0.0 437.6
07:45 28.1 46.1 3.3 SE 6.2 SE 0.0 454.7
07:50 28.0 46.7 3.3 SE 6.5 NE 0.0 472.2
07:55 28.3 46.5 2.9 SE 6.0 E 0.0 488.8
08:00 28.2 47.5 3.9 ESE 7.3 SE 0.0 505.0
08:05 28.2 48.3 3.1 SE 6.3 ENE 0.0 520.3
08:10 28.5 48.1 3.4 ESE 7.4 ESE 0.0 538.8
08:15 28.6 47.8 2.5 SE 7.7 SE 0.0 552.9
08:20 28.3 48.8 3.9 ESE 8.5 ESE 0.0 567.9
08:25 28.0 50.3 4.1 SE 8.4 ESE 0.0 583.0
08:30 28.0 50.1 3.7 SE 8.4 ESE 0.0 599.0
08:35 28.0 50.2 4.4 SE 10.3 SE 0.0 615.1
08:40 28.4 49.6 3.7 SE 8.0 ESE 0.0 631.2
08:45 28.9 48.4 3.8 SE 7.8 SSE 0.0 645.7
08:50 28.9 48.4 3.9 SE 8.9 E 0.0 659.3
08:55 29.2 47.6 3.5 SE 7.7 SSE 0.0 673.3
09:00 29.4 46.4 3.9 SE 8.0 SE 0.0 685.7
09:05 29.5 45.9 3.5 ESE 9.9 ESE 0.0 699.9
09:10 29.6 45.9 4.9 SE 9.4 E 0.0 711.6
09:15 29.9 44.8 3.9 SSE 10.3 E 0.0 723.7
09:20 30.2 44.0 3.8 SE 8.0 E 0.0 736.0
09:25 30.0 44.6 5.9 E 16.0 NE 0.0 746.3
09:30 29.7 45.2 4.1 SE 11.3 ESE 0.0 758.6
09:35 30.3 43.9 5.5 SE 13.1 NE 0.0 769.4
09:40 30.1 44.4 4.8 SE 12.0 ESE 0.0 780.0
09:45 30.2 44.2 4.9 E 12.9 E 0.0 789.6
09:50 30.7 43.2 4.4 ESE 14.0 E 0.0 802.0
09:55 30.7 43.0 4.4 ESE 9.5 ESE 0.0 811.0
10:00 30.2 44.0 4.8 SE 11.2 ENE 0.0 818.0
10:05 30.7 42.9 4.9 ENE 11.2 ENE 0.0 827.0
10:10 30.5 43.3 5.3 SE 10.2 SE 0.0 834.0
10:15 30.5 43.1 5.7 ESE 13.4 E 0.0 841.0
10:20 31.1 42.0 6.0 SE 10.4 SE 0.0 847.0
10:25 31.1 42.1 5.9 SSE 14.4 ESE 0.0 854.0
10:30 31.3 41.8 4.7 ESE 14.2 ESE 0.0 857.0
10:35 31.2 42.0 4.5 SSE 10.7 SSE 0.0 863.0
10:40 31.2 42.2 5.0 SE 9.1 SE 0.0 866.0
10:45 31.1 42.5 4.4 SE 10.2 SSW 0.0 870.0
10:50 31.2 42.3 5.3 SSE 14.8 SSW 0.0 876.0
10:55 31.9 41.0 6.7 SSE 10.7 S 0.0 879.0
11:00 31.6 41.7 5.8 SE 14.2 SSW 0.0 883.0
11:05 31.6 41.5 5.5 SSE 11.2 SSW 0.0 885.0
11:10 31.8 41.6 4.2 SSE 9.0 SE 0.0 884.0
Máxima 31.9 61.3 6.7 SSE 16.0 NE 0.0 885.0
Mínima 20 41.0
Total 0.0